createdAt,value
2023-05-19T00:00:45.029Z,80.18
2023-05-19T00:01:43.365Z,80.28
2023-05-19T00:02:43.546Z,80.38
2023-05-19T00:03:43.421Z,80.69
2023-05-19T00:04:43.389Z,80.69
2023-05-19T00:05:43.422Z,80.79
2023-05-19T00:06:43.320Z,81.10
2023-05-19T00:07:43.651Z,81.20
2023-05-19T00:08:43.384Z,81.41
2023-05-19T00:09:43.350Z,81.10
2023-05-19T00:10:43.315Z,81.71
2023-05-19T00:11:43.281Z,81.14
2023-05-19T00:12:43.344Z,81.10
2023-05-19T00:13:43.307Z,80.90
2023-05-19T00:14:43.257Z,81.00
2023-05-19T00:15:43.294Z,81.62
2023-05-19T00:16:43.251Z,81.16
2023-05-19T00:17:43.347Z,81.00
2023-05-19T00:18:43.642Z,81.00
2023-05-19T00:19:43.222Z,81.00
2023-05-19T00:20:43.214Z,81.30
2023-05-19T00:21:43.226Z,81.71
2023-05-19T00:22:43.125Z,81.82
2023-05-19T00:23:43.085Z,81.65
2023-05-19T00:24:43.099Z,81.62
2023-05-19T00:25:43.101Z,81.71
2023-05-19T00:26:43.053Z,81.76
2023-05-19T00:27:43.153Z,82.68
2023-05-19T00:28:43.062Z,82.47
2023-05-19T00:29:43.101Z,82.89
2023-05-19T00:30:43.107Z,82.54
2023-05-19T00:31:43.139Z,82.47
2023-05-19T00:32:43.162Z,82.78
2023-05-19T00:33:43.107Z,82.89
2023-05-19T00:34:43.197Z,82.57
2023-05-19T00:35:43.362Z,82.06
2023-05-19T00:36:43.182Z,82.13
2023-05-19T00:37:43.167Z,81.41
2023-05-19T00:38:43.098Z,81.62
2023-05-19T00:39:43.160Z,81.65
2023-05-19T00:40:43.049Z,81.76
2023-05-19T00:41:43.044Z,81.86
2023-05-19T00:42:43.052Z,81.62
2023-05-19T00:43:43.042Z,81.86
2023-05-19T00:44:43.031Z,81.82
2023-05-19T00:45:43.070Z,81.76
2023-05-19T00:46:43.295Z,81.82
2023-05-19T00:47:43.084Z,81.82
2023-05-19T00:48:43.010Z,81.65
2023-05-19T00:49:43.022Z,82.47
2023-05-19T00:50:43.036Z,83.03
2023-05-19T00:51:43.031Z,83.33
2023-05-19T00:52:43.006Z,83.54
2023-05-19T00:53:42.985Z,83.54
2023-05-19T00:54:43.044Z,83.95
2023-05-19T00:55:43.033Z,83.75
2023-05-19T00:56:42.849Z,84.09
2023-05-19T00:57:42.837Z,83.68
2023-05-19T00:58:42.876Z,83.58
2023-05-19T00:59:42.852Z,84.20
2023-05-19T01:00:43.421Z,83.68
2023-05-19T01:01:42.928Z,83.89
2023-05-19T01:02:43.069Z,83.78
2023-05-19T01:03:43.369Z,83.78
2023-05-19T01:04:42.946Z,83.99
2023-05-19T01:05:42.960Z,83.62
2023-05-19T01:06:42.895Z,83.58
2023-05-19T01:07:42.887Z,84.13
2023-05-19T01:08:42.850Z,84.23
2023-05-19T01:09:42.880Z,84.34
2023-05-19T01:10:42.891Z,84.03
2023-05-19T01:11:42.917Z,84.34
2023-05-19T01:12:42.847Z,84.69
2023-05-19T01:13:43.930Z,85.51
2023-05-19T01:14:43.162Z,85.55
2023-05-19T01:15:42.892Z,85.55
2023-05-19T01:16:43.008Z,86.16
2023-05-19T01:17:42.915Z,85.69
2023-05-19T01:18:42.824Z,86.52
2023-05-19T01:19:42.885Z,86.31
2023-05-19T01:20:42.800Z,87.17
2023-05-19T01:21:42.797Z,86.82
2023-05-19T01:22:42.725Z,87.13
2023-05-19T01:23:42.735Z,86.72
2023-05-19T01:24:42.681Z,86.76
2023-05-19T01:25:42.655Z,86.31
2023-05-19T01:26:42.635Z,85.69
2023-05-19T01:27:42.718Z,86.87
2023-05-19T01:28:42.669Z,86.52
2023-05-19T01:29:42.614Z,85.79
2023-05-19T01:30:42.681Z,86.52
2023-05-19T01:31:42.690Z,86.52
2023-05-19T01:32:42.695Z,86.31
2023-05-19T01:33:42.628Z,86.61
2023-05-19T01:34:43.697Z,85.89
2023-05-19T01:35:42.596Z,86.00
2023-05-19T01:36:42.714Z,86.41
2023-05-19T01:37:42.768Z,86.00
2023-05-19T01:38:42.684Z,85.89
2023-05-19T01:39:42.683Z,86.10
2023-05-19T01:40:42.759Z,85.94
2023-05-19T01:41:42.705Z,86.66
2023-05-19T01:42:42.757Z,86.87
2023-05-19T01:43:42.705Z,87.17
2023-05-19T01:44:42.705Z,87.07
2023-05-19T01:45:43.052Z,87.24
2023-05-19T01:46:42.711Z,86.97
2023-05-19T01:47:42.699Z,87.07
2023-05-19T01:48:42.634Z,87.38
2023-05-19T01:49:42.611Z,87.48
2023-05-19T01:50:42.632Z,87.48
2023-05-19T01:51:42.610Z,87.38
2023-05-19T01:52:42.638Z,87.38
2023-05-19T01:53:42.632Z,86.97
2023-05-19T01:54:42.567Z,87.07
2023-05-19T01:55:42.553Z,87.07
2023-05-19T01:56:42.853Z,87.38
2023-05-19T01:57:42.854Z,87.69
2023-05-19T01:58:42.566Z,87.59
2023-05-19T01:59:42.490Z,87.69
2023-05-19T02:00:42.440Z,87.69
2023-05-19T02:01:42.543Z,87.48
2023-05-19T02:02:42.425Z,87.38
2023-05-19T02:03:42.432Z,87.63
2023-05-19T02:04:42.537Z,87.59
2023-05-19T02:05:42.410Z,87.69
2023-05-19T02:06:42.376Z,87.27
2023-05-19T02:07:42.423Z,87.27
2023-05-19T02:08:42.394Z,87.27
2023-05-19T02:09:42.418Z,87.07
2023-05-19T02:10:42.508Z,87.48
2023-05-19T02:11:42.465Z,87.07
2023-05-19T02:12:42.486Z,87.07
2023-05-19T02:13:42.354Z,87.17
2023-05-19T02:14:42.754Z,86.87
2023-05-19T02:15:42.576Z,86.76
2023-05-19T02:16:42.482Z,86.45
2023-05-19T02:17:42.454Z,86.66
2023-05-19T02:18:42.449Z,86.97
2023-05-19T02:19:42.406Z,87.11
2023-05-19T02:20:42.433Z,87.27
2023-05-19T02:21:42.426Z,87.21
2023-05-19T02:22:42.422Z,87.42
2023-05-19T02:23:42.423Z,87.63
2023-05-19T02:24:42.441Z,87.52
2023-05-19T02:25:42.697Z,88.49
2023-05-19T02:26:42.335Z,88.29
2023-05-19T02:27:42.354Z,88.08
2023-05-19T02:28:42.340Z,88.04
2023-05-19T02:29:42.343Z,88.35
2023-05-19T02:30:42.395Z,88.04
2023-05-19T02:31:43.458Z,87.63
2023-05-19T02:32:42.466Z,87.42
2023-05-19T02:33:42.295Z,87.83
2023-05-19T02:34:42.337Z,87.73
2023-05-19T02:35:42.318Z,87.73
2023-05-19T02:36:42.636Z,87.42
2023-05-19T02:37:42.263Z,87.21
2023-05-19T02:38:42.238Z,87.11
2023-05-19T02:39:42.301Z,87.11
2023-05-19T02:40:42.192Z,87.01
2023-05-19T02:41:42.249Z,87.01
2023-05-19T02:42:42.173Z,87.21
2023-05-19T02:43:42.181Z,86.90
2023-05-19T02:44:42.167Z,87.15
2023-05-19T02:45:42.162Z,87.52
2023-05-19T02:46:42.409Z,87.98
2023-05-19T02:47:43.198Z,88.29
2023-05-19T02:48:42.114Z,88.08
2023-05-19T02:49:42.168Z,87.98
2023-05-19T02:50:42.258Z,87.42
2023-05-19T02:51:42.248Z,87.01
2023-05-19T02:52:42.231Z,87.32
2023-05-19T02:53:42.284Z,87.11
2023-05-19T02:54:42.484Z,86.60
2023-05-19T02:55:42.196Z,85.77
2023-05-19T02:56:42.193Z,87.01
2023-05-19T02:57:42.222Z,86.80
2023-05-19T02:58:42.190Z,86.18
2023-05-19T02:59:42.173Z,86.60
2023-05-19T03:00:42.157Z,86.29
2023-05-19T03:01:42.151Z,86.63
2023-05-19T03:02:42.260Z,87.81
2023-05-19T03:03:42.274Z,88.32
2023-05-19T03:04:42.117Z,88.53
2023-05-19T03:05:42.373Z,88.89
2023-05-19T03:06:43.070Z,89.65
2023-05-19T03:07:42.090Z,89.86
2023-05-19T03:08:42.516Z,90.37
2023-05-19T03:09:43.088Z,90.68
2023-05-19T03:10:42.072Z,91.20
2023-05-19T03:11:42.068Z,90.99
2023-05-19T03:12:42.336Z,91.44
2023-05-19T03:13:41.989Z,91.20
2023-05-19T03:14:41.940Z,90.72
2023-05-19T03:15:41.964Z,91.09
2023-05-19T03:16:42.141Z,90.89
2023-05-19T03:17:42.086Z,91.13
2023-05-19T03:18:41.945Z,91.75
2023-05-19T03:19:41.902Z,91.13
2023-05-19T03:20:41.933Z,91.13
2023-05-19T03:21:41.906Z,92.00
2023-05-19T03:22:41.908Z,92.63
2023-05-19T03:23:42.045Z,93.14
2023-05-19T03:24:41.985Z,92.72
2023-05-19T03:25:41.975Z,93.45
2023-05-19T03:26:41.973Z,93.60
2023-05-19T03:27:42.021Z,93.24
2023-05-19T03:28:41.934Z,93.49
2023-05-19T03:29:42.048Z,93.49
2023-05-19T03:30:41.986Z,93.24
2023-05-19T03:31:41.938Z,93.66
2023-05-19T03:32:42.099Z,93.39
2023-05-19T03:33:42.285Z,93.80
2023-05-19T03:34:41.961Z,93.24
2023-05-19T03:35:41.935Z,93.35
2023-05-19T03:36:41.902Z,93.60
2023-05-19T03:37:41.895Z,92.72
2023-05-19T03:38:41.877Z,93.45
2023-05-19T03:39:42.381Z,93.55
2023-05-19T03:40:41.872Z,93.45
2023-05-19T03:41:42.003Z,93.45
2023-05-19T03:42:41.864Z,92.93
2023-05-19T03:43:41.873Z,92.72
2023-05-19T03:44:41.737Z,92.93
2023-05-19T03:45:41.963Z,93.04
2023-05-19T03:46:41.818Z,92.63
2023-05-19T03:47:41.821Z,93.30
2023-05-19T03:48:41.819Z,92.83
2023-05-19T03:49:41.853Z,92.58
2023-05-19T03:50:41.809Z,92.48
2023-05-19T03:51:41.789Z,91.24
2023-05-19T03:52:41.746Z,91.90
2023-05-19T03:53:41.783Z,91.75
2023-05-19T03:54:41.798Z,91.86
2023-05-19T03:55:41.719Z,92.17
2023-05-19T03:56:41.680Z,91.65
2023-05-19T03:57:41.658Z,90.89
2023-05-19T03:58:41.648Z,90.47
2023-05-19T03:59:41.645Z,90.10
2023-05-19T04:00:41.761Z,91.03
2023-05-19T04:01:41.986Z,91.34
2023-05-19T04:02:41.688Z,90.93
2023-05-19T04:03:41.793Z,91.28
2023-05-19T04:04:41.843Z,92.11
2023-05-19T04:05:41.713Z,91.69
2023-05-19T04:06:41.830Z,91.90
2023-05-19T04:07:41.949Z,92.21
2023-05-19T04:08:41.756Z,92.07
2023-05-19T04:09:41.752Z,91.49
2023-05-19T04:10:41.681Z,91.86
2023-05-19T04:11:41.669Z,91.24
2023-05-19T04:12:41.689Z,91.30
2023-05-19T04:13:41.568Z,90.83
2023-05-19T04:14:41.629Z,90.37
2023-05-19T04:15:41.719Z,90.33
2023-05-19T08:14:48.801Z,57.78
2023-05-19T08:15:48.919Z,56.86
2023-05-19T08:16:48.938Z,58.99
2023-05-19T08:17:49.215Z,60.10
2023-05-19T08:18:50.172Z,61.79
2023-05-19T08:19:50.049Z,60.78
2023-05-19T08:20:50.139Z,59.97
2023-05-19T08:21:50.107Z,59.27
2023-05-19T08:22:50.085Z,59.36
2023-05-19T08:23:50.000Z,60.27
2023-05-19T08:24:49.940Z,60.98
2023-05-19T08:25:49.917Z,59.87
2023-05-19T08:26:49.936Z,61.79
2023-05-19T08:27:50.073Z,59.97
2023-05-19T08:28:49.940Z,60.75
2023-05-19T08:29:49.909Z,61.36
2023-05-19T08:30:50.034Z,60.32
2023-05-19T08:31:49.919Z,57.18
2023-05-19T08:32:49.994Z,55.87
2023-05-19T08:33:50.190Z,56.18
2023-05-19T08:34:50.001Z,56.07
2023-05-19T08:35:49.990Z,56.15
2023-05-19T08:36:49.910Z,54.94
2023-05-19T08:37:49.981Z,54.51
2023-05-19T08:38:49.952Z,55.11
2023-05-19T08:39:49.965Z,55.29
2023-05-19T08:40:49.954Z,54.18
2023-05-19T08:41:49.921Z,54.89
2023-05-19T08:42:49.850Z,53.47
2023-05-19T08:43:49.954Z,53.17
2023-05-19T08:44:50.101Z,54.05
2023-05-19T08:45:49.870Z,52.87
2023-05-19T08:46:50.041Z,53.85
2023-05-19T08:47:49.940Z,52.84
2023-05-19T08:48:50.067Z,53.02
2023-05-19T08:49:49.869Z,52.89
2023-05-19T08:50:49.909Z,53.60
2023-05-19T08:51:49.871Z,51.76
2023-05-19T08:52:52.490Z,51.76
2023-05-19T08:53:50.972Z,51.56
2023-05-19T08:54:49.718Z,50.85
2023-05-19T08:55:49.692Z,51.81
2023-05-19T08:56:49.791Z,52.92
2023-05-19T08:57:49.749Z,53.20
2023-05-19T08:58:49.758Z,53.80
2023-05-19T08:59:49.663Z,52.80
2023-05-19T09:00:49.669Z,51.48
2023-05-19T09:01:49.652Z,52.47
2023-05-19T09:02:59.855Z,50.96
2023-05-19T09:03:51.756Z,50.65
2023-05-19T09:04:49.739Z,51.68
2023-05-19T09:05:49.766Z,52.59
2023-05-19T09:06:49.757Z,51.79
2023-05-19T09:07:49.720Z,51.28
2023-05-19T09:08:49.796Z,53.67
2023-05-19T09:09:49.818Z,52.19
2023-05-19T09:10:49.827Z,52.39
2023-05-19T09:11:49.945Z,50.37
2023-05-19T09:12:49.928Z,48.64
2023-05-19T09:13:49.536Z,49.55
2023-05-19T09:14:49.647Z,48.61
2023-05-19T09:15:50.726Z,49.40
2023-05-19T09:16:49.855Z,48.39
2023-05-19T09:17:49.732Z,48.69
2023-05-19T09:18:49.673Z,48.49
2023-05-19T09:19:49.584Z,49.18
2023-05-19T09:20:49.630Z,47.99
2023-05-19T09:21:50.219Z,46.86
2023-05-19T09:22:49.608Z,46.36
2023-05-19T09:23:49.769Z,47.97
2023-05-19T09:24:49.537Z,46.56
2023-05-19T09:25:49.622Z,46.56
2023-05-19T09:26:50.026Z,47.66
2023-05-19T09:27:49.983Z,47.46
2023-05-19T09:28:49.844Z,46.76
2023-05-19T09:29:49.649Z,48.97
2023-05-19T09:30:49.567Z,49.05
2023-05-19T09:31:50.029Z,48.87
2023-05-19T09:32:49.556Z,47.85
2023-05-19T09:33:49.560Z,47.26
2023-05-19T09:34:49.563Z,48.17
2023-05-19T09:35:49.498Z,48.77
2023-05-19T09:36:51.534Z,48.97
2023-05-19T09:37:49.518Z,50.58
2023-05-19T09:38:49.457Z,49.27
2023-05-19T09:39:49.777Z,49.10
2023-05-19T09:40:49.602Z,49.68
2023-05-19T09:41:49.762Z,49.68
2023-05-19T09:42:49.558Z,49.27
2023-05-19T09:43:49.505Z,49.76
2023-05-19T09:44:49.447Z,48.44
2023-05-19T09:45:49.382Z,47.64
2023-05-19T09:46:49.345Z,47.14
2023-05-19T09:47:49.510Z,47.42
2023-05-19T09:48:49.497Z,47.72
2023-05-19T09:49:49.571Z,47.90
2023-05-19T09:50:49.530Z,47.07
2023-05-19T09:51:49.356Z,46.19
2023-05-19T09:52:50.490Z,45.91
2023-05-19T09:53:49.328Z,47.39
2023-05-19T09:54:49.627Z,47.58
2023-05-19T09:55:49.478Z,46.59
2023-05-19T09:56:49.577Z,46.59
2023-05-19T09:57:49.536Z,47.60
2023-05-19T09:58:49.472Z,47.39
2023-05-19T09:59:49.600Z,46.80
2023-05-19T10:00:49.441Z,47.80
2023-05-19T10:01:49.596Z,48.63
2023-05-19T10:02:49.290Z,48.75
2023-05-19T10:03:49.596Z,49.37
2023-05-19T10:04:49.368Z,48.90
2023-05-19T10:05:49.745Z,48.29
2023-05-19T10:06:49.501Z,48.90
2023-05-19T10:07:49.615Z,50.00
2023-05-19T10:08:49.867Z,49.57
2023-05-19T10:09:49.624Z,49.76
2023-05-19T10:10:49.187Z,49.02
2023-05-19T10:11:49.243Z,46.80
2023-05-19T10:12:49.231Z,47.50
2023-05-19T10:13:50.246Z,48.68
2023-05-19T10:14:49.118Z,48.68
2023-05-19T10:15:57.929Z,49.08
2023-05-19T10:16:51.222Z,46.87
2023-05-19T10:17:49.141Z,45.75
2023-05-19T10:18:49.259Z,46.03
2023-05-19T10:19:49.225Z,46.93
2023-05-19T10:20:49.189Z,46.42
2023-05-19T10:21:49.237Z,47.23
2023-05-19T10:22:49.274Z,46.12
2023-05-19T10:23:49.474Z,45.22
2023-05-19T10:24:49.176Z,45.57
2023-05-19T10:25:49.394Z,45.57
2023-05-19T10:26:49.157Z,47.55
2023-05-19T10:27:49.176Z,46.67
2023-05-19T10:28:49.150Z,46.45
2023-05-19T10:29:49.630Z,47.27
2023-05-19T10:30:49.172Z,47.47
2023-05-19T10:31:49.344Z,46.97
2023-05-19T10:32:49.191Z,46.37
2023-05-19T10:33:49.432Z,46.85
2023-05-19T10:34:49.604Z,46.15
2023-05-19T10:35:49.270Z,44.67
2023-05-19T10:36:49.569Z,44.95
2023-05-19T10:37:50.169Z,45.02
2023-05-19T10:38:49.132Z,44.72
2023-05-19T10:39:49.125Z,45.00
2023-05-19T10:40:48.986Z,44.00
2023-05-19T10:41:49.008Z,42.97
2023-05-19T10:42:49.028Z,44.00
2023-05-19T10:43:48.911Z,43.02
2023-05-19T10:44:49.592Z,42.91
2023-05-19T10:45:48.883Z,44.00
2023-05-19T10:46:49.098Z,43.30
2023-05-19T10:47:48.905Z,42.49
2023-05-19T10:48:49.211Z,42.10
2023-05-19T10:49:48.972Z,42.30
2023-05-19T10:50:48.978Z,42.91
2023-05-19T10:51:49.205Z,43.92
2023-05-19T10:52:49.173Z,43.92
2023-05-19T10:53:49.568Z,45.04
2023-05-19T10:54:49.485Z,45.34
2023-05-19T10:55:49.267Z,45.22
2023-05-19T10:56:49.016Z,45.72
2023-05-19T10:57:48.959Z,45.08
2023-05-19T10:58:49.026Z,43.98
2023-05-19T10:59:49.247Z,42.96
2023-05-19T11:00:49.365Z,43.63
2023-05-19T11:01:49.028Z,41.93
2023-05-19T11:02:49.826Z,42.02
2023-05-19T11:03:49.114Z,41.82
2023-05-19T11:04:51.307Z,41.05
2023-05-19T11:05:49.940Z,42.03
2023-05-19T11:06:48.753Z,40.63
2023-05-19T11:07:49.047Z,40.41
2023-05-19T11:08:49.197Z,39.73
2023-05-19T11:09:48.745Z,40.03
2023-05-19T11:10:48.701Z,40.85
2023-05-19T11:11:48.786Z,40.63
2023-05-19T11:12:48.919Z,41.41
2023-05-19T11:13:48.873Z,42.32
2023-05-19T11:14:48.806Z,41.11
2023-05-19T11:15:48.813Z,41.89
2023-05-19T11:16:49.111Z,41.09
2023-05-19T11:17:49.137Z,40.88
2023-05-19T11:18:48.849Z,42.40
2023-05-19T11:19:48.797Z,42.49
2023-05-19T11:20:48.798Z,42.90
2023-05-19T11:21:48.790Z,42.02
2023-05-19T11:22:48.886Z,42.82
2023-05-19T11:23:49.107Z,43.41
2023-05-19T11:24:48.756Z,42.52
2023-05-19T11:25:48.758Z,42.24
2023-05-19T11:26:48.789Z,42.54
2023-05-19T11:27:48.801Z,44.34
2023-05-19T11:28:48.977Z,44.84
2023-05-19T11:29:48.668Z,44.93
2023-05-19T11:30:48.672Z,44.48
2023-05-19T11:31:48.684Z,43.19
2023-05-19T11:32:48.777Z,43.19
2023-05-19T11:33:48.634Z,43.19
2023-05-19T11:34:48.655Z,44.50
2023-05-19T11:35:48.573Z,44.90
2023-05-19T11:36:48.675Z,44.80
2023-05-19T11:37:48.569Z,44.12
2023-05-19T11:38:48.535Z,44.42
2023-05-19T11:39:48.525Z,44.92
2023-05-19T11:40:48.487Z,45.72
2023-05-19T11:41:48.509Z,45.62
2023-05-19T11:42:48.683Z,44.42
2023-05-19T11:43:48.511Z,44.80
2023-05-19T11:44:48.488Z,45.00
2023-05-19T11:45:48.663Z,44.08
2023-05-19T11:46:48.724Z,42.19
2023-05-19T11:48:01.365Z,44.70
2023-05-19T11:48:50.583Z,44.78
2023-05-19T11:49:48.475Z,43.77
2023-05-19T11:50:48.583Z,44.08
2023-05-19T11:51:48.528Z,44.20
2023-05-19T11:52:48.526Z,43.10
2023-05-19T11:53:48.833Z,43.82
2023-05-19T11:54:48.513Z,42.94
2023-05-19T11:55:49.220Z,44.92
2023-05-19T11:56:48.612Z,44.84
2023-05-19T11:58:02.157Z,45.12
2023-05-19T11:58:50.689Z,45.02
2023-05-19T11:59:48.488Z,44.12
2023-05-19T12:00:48.615Z,43.52
2023-05-19T12:01:48.443Z,43.30
2023-05-19T12:02:48.566Z,43.08
2023-05-19T12:03:48.553Z,43.96
2023-05-19T12:04:48.532Z,43.35
2023-05-19T12:05:48.912Z,43.35
2023-05-19T12:06:48.515Z,44.06
2023-05-19T12:07:48.369Z,43.05
2023-05-19T12:08:48.351Z,44.06
2023-05-19T12:09:48.659Z,42.96
2023-05-19T12:10:48.473Z,43.85
2023-05-19T12:11:48.628Z,42.16
2023-05-19T12:12:48.396Z,42.46
2023-05-19T12:13:48.251Z,43.63
2023-05-19T12:14:48.478Z,43.84
2023-05-19T12:15:48.390Z,42.11
2023-05-19T12:16:48.329Z,42.32
2023-05-19T12:17:48.292Z,42.05
2023-05-19T12:18:48.356Z,42.03
2023-05-19T12:19:48.525Z,43.01
2023-05-19T12:20:48.329Z,41.99
2023-05-19T12:21:48.196Z,41.99
2023-05-19T12:22:48.216Z,42.19
2023-05-19T12:23:48.277Z,42.87
2023-05-19T12:24:48.234Z,42.27
2023-05-19T12:25:48.811Z,41.89
2023-05-19T12:26:48.516Z,40.50
2023-05-19T12:27:48.302Z,41.41
2023-05-19T12:28:48.270Z,40.43
2023-05-19T12:29:48.294Z,42.03
2023-05-19T12:30:48.282Z,42.21
2023-05-19T12:31:48.302Z,42.13
2023-05-19T12:32:48.273Z,43.13
2023-05-19T12:33:48.204Z,42.43
2023-05-19T12:34:48.206Z,43.43
2023-05-19T12:35:48.216Z,42.25
2023-05-19T12:36:48.248Z,41.75
2023-05-19T12:37:48.547Z,41.85
2023-05-19T12:38:48.188Z,42.25
2023-05-19T12:39:48.215Z,43.24
2023-05-19T12:40:48.158Z,43.49
2023-05-19T12:41:48.299Z,41.19
2023-05-19T12:42:48.248Z,40.80
2023-05-19T12:43:48.175Z,41.27
2023-05-19T12:44:48.234Z,40.67
2023-05-19T12:45:48.235Z,39.65
2023-05-19T12:46:48.444Z,40.75
2023-05-19T12:47:48.124Z,41.05
2023-05-19T12:48:48.669Z,41.44
2023-05-19T12:49:48.100Z,41.03
2023-05-19T12:50:48.153Z,40.32
2023-05-19T12:51:48.145Z,39.42
2023-05-19T12:52:48.216Z,40.32
2023-05-19T12:53:47.995Z,39.52
2023-05-19T12:54:48.028Z,40.32
2023-05-19T12:55:47.967Z,39.65
2023-05-19T12:56:47.944Z,39.95
2023-05-19T12:57:49.942Z,39.46
2023-05-19T12:58:49.048Z,38.44
2023-05-19T12:59:47.901Z,38.64
2023-05-19T13:00:48.149Z,37.82
2023-05-19T13:01:48.372Z,38.40
2023-05-19T13:02:48.444Z,38.89
2023-05-19T13:03:48.137Z,36.85
2023-05-19T13:04:47.995Z,37.25
2023-05-19T13:05:48.118Z,38.35
2023-05-19T13:06:48.024Z,38.56
2023-05-19T13:07:48.113Z,37.29
2023-05-19T13:08:47.996Z,38.60
2023-05-19T13:09:48.026Z,37.32
2023-05-19T13:10:47.891Z,38.64
2023-05-19T13:11:48.056Z,39.14
2023-05-19T13:12:48.229Z,39.46
2023-05-19T13:13:47.902Z,40.36
2023-05-19T13:14:48.148Z,40.34
2023-05-19T13:15:47.924Z,40.83
2023-05-19T13:16:47.951Z,40.52
2023-05-19T13:17:47.936Z,40.48
2023-05-19T13:18:47.950Z,40.68
2023-05-19T13:19:48.250Z,39.78
2023-05-19T13:20:47.873Z,38.80
2023-05-19T13:21:47.890Z,38.70
2023-05-19T13:22:48.129Z,39.20
2023-05-19T13:23:47.861Z,39.12
2023-05-19T13:24:47.967Z,39.30
2023-05-19T13:25:48.111Z,38.68
2023-05-19T13:26:47.826Z,39.56
2023-05-19T13:27:48.028Z,39.78
2023-05-19T13:28:47.926Z,40.20
2023-05-19T13:29:48.786Z,40.50
2023-05-19T13:30:47.898Z,39.84
2023-05-19T13:31:47.804Z,40.45
2023-05-19T13:32:47.896Z,40.06
2023-05-19T13:33:47.847Z,40.37
2023-05-19T13:34:47.873Z,40.58
2023-05-19T13:35:47.867Z,40.19
2023-05-19T13:36:48.629Z,40.47
2023-05-19T13:37:47.911Z,40.86
2023-05-19T13:38:48.001Z,40.75
2023-05-19T13:39:47.741Z,40.36
2023-05-19T13:40:47.767Z,40.83
2023-05-19T13:41:47.617Z,40.34
2023-05-19T13:42:47.606Z,39.88
2023-05-19T13:43:47.645Z,38.13
2023-05-19T13:44:47.668Z,37.51
2023-05-19T13:45:47.804Z,37.05
2023-05-19T13:46:49.999Z,38.03
2023-05-19T13:47:47.662Z,37.15
2023-05-19T13:48:48.110Z,37.19
2023-05-19T13:49:47.658Z,38.07
2023-05-19T13:50:47.961Z,38.84
2023-05-19T13:51:47.694Z,37.73
2023-05-19T13:52:47.828Z,38.84
2023-05-19T13:53:47.691Z,38.25
2023-05-19T13:54:47.685Z,37.98
2023-05-19T13:55:47.742Z,38.18
2023-05-19T13:56:47.702Z,38.50
2023-05-19T13:57:47.700Z,39.54
2023-05-19T13:58:47.627Z,40.64
2023-05-19T14:00:00.942Z,40.64
2023-05-19T14:00:49.685Z,41.93
2023-05-19T14:01:47.839Z,41.75
2023-05-19T14:02:47.673Z,42.18
2023-05-19T14:03:47.681Z,41.80
2023-05-19T14:04:47.559Z,42.10
2023-05-19T14:05:47.586Z,41.89
2023-05-19T14:06:47.797Z,41.75
2023-05-19T14:07:48.094Z,41.16
2023-05-19T14:08:47.609Z,40.22
2023-05-19T14:09:47.554Z,40.80
2023-05-19T14:10:47.765Z,37.59
2023-05-19T14:11:47.812Z,37.37
2023-05-19T14:13:14.176Z,37.53
2023-05-19T14:13:51.740Z,37.41
2023-05-19T14:14:47.450Z,37.88
2023-05-19T14:15:47.564Z,37.18
2023-05-19T14:16:47.626Z,38.67
2023-05-19T14:17:47.528Z,37.56
2023-05-19T14:18:47.946Z,38.97
2023-05-19T14:19:47.406Z,36.12
2023-05-19T14:20:47.444Z,36.80
2023-05-19T14:21:47.504Z,36.38
2023-05-19T14:22:47.787Z,36.96
2023-05-19T14:23:47.820Z,36.21
2023-05-19T14:24:47.697Z,35.91
2023-05-19T14:25:47.560Z,35.21
2023-05-19T14:26:47.436Z,35.50
2023-05-19T14:27:47.845Z,34.91
2023-05-19T14:28:47.439Z,34.53
2023-05-19T14:29:47.779Z,35.52
2023-05-19T14:30:47.528Z,36.10
2023-05-19T14:31:47.501Z,35.19
2023-05-19T14:32:47.908Z,35.41
2023-05-19T14:33:47.474Z,36.58
2023-05-19T14:34:48.324Z,36.29
2023-05-19T14:35:47.861Z,34.99
2023-05-19T14:36:47.506Z,35.27
2023-05-19T14:37:47.918Z,36.35
2023-05-19T14:38:48.393Z,35.46
2023-05-19T14:39:48.892Z,35.34
2023-05-19T14:40:47.913Z,34.96
2023-05-19T14:41:47.845Z,35.66
2023-05-19T14:42:47.925Z,36.33
2023-05-19T14:43:48.919Z,36.65
2023-05-19T14:44:47.831Z,35.94
2023-05-19T14:45:47.758Z,37.23
2023-05-19T14:46:48.076Z,36.35
2023-05-19T14:47:48.092Z,35.85
2023-05-19T14:48:47.689Z,36.77
2023-05-19T14:49:48.170Z,37.48
2023-05-19T14:50:47.993Z,38.99
2023-05-19T14:51:47.680Z,38.33
2023-05-19T14:52:47.262Z,38.75
2023-05-19T14:53:47.666Z,37.47
2023-05-19T14:54:47.301Z,39.48
2023-05-19T14:55:47.268Z,39.30
2023-05-19T14:56:47.288Z,40.80
2023-05-19T14:57:47.161Z,40.59
2023-05-19T14:58:47.211Z,39.80
2023-05-19T14:59:47.131Z,40.59
2023-05-19T15:00:47.567Z,40.30
2023-05-19T15:01:47.796Z,39.12
2023-05-19T15:02:47.515Z,41.14
2023-05-19T15:03:47.215Z,40.23
2023-05-19T15:04:47.900Z,39.94
2023-05-19T15:05:47.799Z,41.44
2023-05-19T15:06:52.293Z,41.93
2023-05-19T15:07:48.245Z,41.74
2023-05-19T15:08:47.450Z,41.83
2023-05-19T15:09:47.081Z,41.96
2023-05-19T15:10:47.479Z,40.75
2023-05-19T15:11:47.260Z,41.46
2023-05-19T15:12:47.671Z,41.88
2023-05-19T15:13:47.688Z,42.77
2023-05-19T15:14:47.364Z,43.01
2023-05-19T15:15:47.160Z,43.41
2023-05-19T15:16:47.659Z,43.21
2023-05-19T15:17:47.213Z,43.12
2023-05-19T15:18:47.073Z,42.77
2023-05-19T15:19:47.031Z,42.47
2023-05-19T15:20:47.274Z,41.96
2023-05-19T15:21:47.547Z,41.93
2023-05-19T15:22:47.037Z,41.11
2023-05-19T15:23:47.389Z,40.52
2023-05-19T15:24:47.274Z,40.28
2023-05-19T15:25:47.484Z,39.76
2023-05-19T15:26:46.963Z,40.24
2023-05-19T15:27:47.191Z,38.93
2023-05-19T15:28:47.392Z,37.60
2023-05-19T15:29:47.668Z,36.30
2023-05-19T15:30:47.306Z,36.78
2023-05-19T15:31:47.260Z,37.86
2023-05-19T15:32:47.782Z,36.77
2023-05-19T15:33:47.328Z,36.77
2023-05-19T15:34:47.274Z,36.66
2023-05-19T15:35:47.444Z,37.06
2023-05-19T15:36:47.248Z,36.87
2023-05-19T15:37:47.288Z,36.78
2023-05-19T15:38:46.918Z,37.06
2023-05-19T15:39:47.135Z,36.38
2023-05-19T15:40:47.035Z,37.79
2023-05-19T15:41:46.898Z,37.60
2023-05-19T15:42:46.957Z,37.38
2023-05-19T15:43:46.965Z,37.90
2023-05-19T15:44:46.943Z,39.01
2023-05-19T15:45:46.779Z,39.23
2023-05-19T15:46:46.979Z,38.63
2023-05-19T15:47:46.806Z,38.75
2023-05-19T15:48:46.806Z,40.04
2023-05-19T15:49:47.085Z,38.96
2023-05-19T15:50:46.732Z,39.48
2023-05-19T15:51:47.088Z,39.60
2023-05-19T15:52:46.990Z,40.40
2023-05-19T15:53:47.483Z,41.60
2023-05-19T15:54:46.921Z,40.92
2023-05-19T15:55:47.559Z,40.89
2023-05-19T15:56:46.876Z,41.02
2023-05-19T15:57:46.827Z,41.11
2023-05-19T15:58:47.296Z,41.46
2023-05-19T15:59:47.343Z,41.83
2023-05-19T16:00:47.116Z,42.35
2023-05-19T16:01:47.318Z,42.68
2023-05-19T16:02:47.536Z,42.68
2023-05-19T16:03:47.026Z,42.38
2023-05-19T16:04:46.776Z,42.18
2023-05-19T16:05:46.699Z,41.80
2023-05-19T16:06:46.812Z,43.09
2023-05-19T16:07:46.664Z,43.18
2023-05-19T16:08:46.857Z,43.19
2023-05-19T16:09:46.740Z,42.69
2023-05-19T16:10:47.051Z,42.69
2023-05-19T16:11:46.710Z,42.90
2023-05-19T16:12:47.077Z,42.19
2023-05-19T16:13:47.727Z,42.82
2023-05-19T16:14:47.196Z,42.21
2023-05-19T16:15:47.001Z,42.29
2023-05-19T16:16:46.694Z,43.29
2023-05-19T16:17:46.754Z,41.80
2023-05-19T16:18:47.089Z,42.29
2023-05-19T16:19:47.444Z,41.99
2023-05-19T16:20:46.902Z,42.40
2023-05-19T16:21:47.153Z,42.49
2023-05-19T16:22:47.129Z,42.41
2023-05-19T16:23:46.961Z,41.93
2023-05-19T16:24:47.121Z,43.24
2023-05-19T16:25:46.511Z,41.83
2023-05-19T16:26:46.581Z,43.16
2023-05-19T16:27:46.482Z,43.24
2023-05-19T16:28:47.058Z,43.04
2023-05-19T16:29:46.544Z,43.35
2023-05-19T16:30:47.114Z,43.05
2023-05-19T16:31:47.029Z,43.24
2023-05-19T16:32:47.010Z,42.91
2023-05-19T16:33:46.827Z,42.11
2023-05-19T16:34:46.626Z,42.54
2023-05-19T16:35:47.003Z,42.03
2023-05-19T16:36:46.530Z,42.43
2023-05-19T16:37:46.485Z,41.74
2023-05-19T16:38:47.001Z,42.33
2023-05-19T16:39:47.689Z,42.54
2023-05-19T16:40:46.472Z,42.41
2023-05-19T16:41:46.496Z,42.11
2023-05-19T16:42:46.614Z,43.12
2023-05-19T16:43:46.428Z,43.12
2023-05-19T16:44:47.246Z,43.01
2023-05-19T16:45:47.116Z,43.40
2023-05-19T16:46:47.032Z,43.51
2023-05-19T16:47:47.136Z,43.59
2023-05-19T16:48:47.052Z,42.99
2023-05-19T16:49:46.967Z,42.02
2023-05-19T16:50:47.095Z,42.40